»·PEaware :: N82SB CYXX-KPDX

N82SB :: CYXX-KPDX

FLIGHT INFORMATION

Flight Status: Arrived
Operator: Privately registered:
United States
More flights under this callsign
Pilot: Robert L. (6895)
Aircraft: Unknown
(EPIC)
More flights by this aircraft type
Origin: CYXX Abbotsford
Canada
Destination: KPDX Portland Intl
United States
More flights between these airports :: More routes between these airports
Route: ACORD V23 SEA V495 BTG
File this flight plan on PilotEdge
Remarks:
Altitude:
(Current/Filed)
21,000ft
Speed:
(Current/Filed)
250kts
Departed: 31-Dec-16 03:42 PM
Arrived: 31-Dec-16 04:41 PM
Distance/Time
Traveled:
207nm/0:59
Distance/Time
To Go:
Arrived

Flight Plot

Page will automatically refresh every two minutes.

Flight plan parsing failed; only flown route is shown


Map Options




Map Legend


Flown Route
Filed Route
Departure Airport
Arrival Airport
Navaid (VOR, NDB)
Fix

Horizontal Profiles

Position Reports

Time Latitude Longitude Heading Altitude Ground
Speed
31-Dec-16 15:16 49.026760 -122.374983 293 192ft 0kts
31-Dec-16 15:17 49.026760 -122.374983 293 192ft 0kts
31-Dec-16 15:18 49.026760 -122.374983 293 192ft 0kts
31-Dec-16 15:19 49.026760 -122.374983 293 192ft 0kts
31-Dec-16 15:20 49.026760 -122.374983 293 192ft 0kts
31-Dec-16 15:21 49.026760 -122.374983 293 192ft 0kts
31-Dec-16 15:22 49.026760 -122.374983 293 192ft 0kts
31-Dec-16 15:23 49.026760 -122.374983 293 192ft 0kts
31-Dec-16 15:24 49.026760 -122.374983 293 192ft 0kts
31-Dec-16 15:25 49.026760 -122.374983 293 192ft 0kts
31-Dec-16 15:26 49.026760 -122.374983 293 192ft 0kts
31-Dec-16 15:27 49.026760 -122.374983 293 192ft 0kts
31-Dec-16 15:28 49.026760 -122.374983 293 192ft 0kts
31-Dec-16 15:29 49.026760 -122.374983 293 192ft 0kts
31-Dec-16 15:30 49.026760 -122.374983 293 192ft 0kts
31-Dec-16 15:31 49.026760 -122.374983 293 192ft 0kts
31-Dec-16 15:32 49.026760 -122.374983 293 192ft 0kts
31-Dec-16 15:33 49.026760 -122.374983 293 192ft 0kts
31-Dec-16 15:34 49.026760 -122.374983 293 192ft 0kts
31-Dec-16 15:35 49.026760 -122.374983 293 192ft 0kts
31-Dec-16 15:36 49.026760 -122.374983 293 192ft 0kts
31-Dec-16 15:37 49.031412 -122.371841 75 192ft 15kts
31-Dec-16 15:38 49.031639 -122.370593 77 192ft 0kts
31-Dec-16 15:39 49.031639 -122.370593 77 192ft 0kts
31-Dec-16 15:40 49.031639 -122.370593 77 192ft 0kts
31-Dec-16 15:41 49.030982 -122.369716 203 192ft 14kts
31-Dec-16 15:42 48.998841 -122.393028 204 986ft 174kts
31-Dec-16 15:43 48.955476 -122.422408 202 2773ft 172kts
31-Dec-16 15:44 48.912522 -122.451026 203 4412ft 170kts
31-Dec-16 15:45 48.871177 -122.478640 205 5906ft 168kts
31-Dec-16 15:46 48.828406 -122.507230 207 7252ft 170kts
31-Dec-16 15:47 48.783351 -122.529526 178 8448ft 188kts
31-Dec-16 15:48 48.731454 -122.514599 178 9465ft 196kts
31-Dec-16 15:49 48.676762 -122.498531 178 10298ft 204kts
31-Dec-16 15:50 48.629788 -122.484663 178 10862ft 210kts
31-Dec-16 15:51 48.573896 -122.468158 178 11396ft 217kts
31-Dec-16 15:52 48.516087 -122.451116 179 12801ft 227kts
31-Dec-16 15:53 48.478708 -122.440103 179 13621ft 230kts
31-Dec-16 15:54 48.415592 -122.421562 179 14771ft 235kts
31-Dec-16 15:55 48.340808 -122.399650 180 15786ft 239kts
31-Dec-16 15:56 48.275809 -122.380652 180 16447ft 241kts
31-Dec-16 15:57 48.220868 -122.364630 180 16887ft 243kts
31-Dec-16 15:58 48.154497 -122.345352 180 17311ft 245kts
31-Dec-16 15:59 48.087819 -122.326014 180 17640ft 246kts
31-Dec-16 16:00 48.020846 -122.306627 180 17894ft 248kts
31-Dec-16 16:01 47.941770 -122.283825 180 17921ft 253kts
31-Dec-16 16:02 47.870406 -122.280477 193 18253ft 288kts
31-Dec-16 16:03 47.798070 -122.285430 195 20922ft 256kts
31-Dec-16 16:04 47.733646 -122.289936 193 20977ft 297kts
31-Dec-16 16:05 47.635395 -122.296353 193 20998ft 310kts
31-Dec-16 16:06 47.549579 -122.301954 193 20998ft 312kts
31-Dec-16 16:07 47.477575 -122.306646 193 20996ft 312kts
31-Dec-16 16:08 47.392268 -122.316586 197 20991ft 308kts
31-Dec-16 16:09 47.293309 -122.333779 197 20985ft 308kts
31-Dec-16 16:10 47.208789 -122.348263 197 20981ft 308kts
31-Dec-16 16:11 47.123998 -122.362729 197 20979ft 308kts
31-Dec-16 16:12 47.053095 -122.374797 197 20978ft 308kts
31-Dec-16 16:13 46.968020 -122.389248 196 20972ft 311kts
31-Dec-16 16:14 46.870054 -122.405819 194 20929ft 317kts
31-Dec-16 16:15 46.799604 -122.417630 194 20000ft 314kts
31-Dec-16 16:16 46.714714 -122.431877 194 18907ft 306kts
31-Dec-16 16:17 46.631160 -122.445884 194 17889ft 305kts
31-Dec-16 16:18 46.548058 -122.459767 194 16877ft 305kts
31-Dec-16 16:19 46.464551 -122.473670 194 15864ft 306kts
31-Dec-16 16:20 46.380823 -122.487544 194 15095ft 299kts
31-Dec-16 16:21 46.300341 -122.500868 194 15090ft 298kts
31-Dec-16 16:22 46.214373 -122.515064 194 15088ft 319kts
31-Dec-16 16:23 46.127388 -122.529345 194 15088ft 315kts
31-Dec-16 16:24 46.041218 -122.543472 194 15090ft 314kts
31-Dec-16 16:25 45.954819 -122.557505 194 15096ft 319kts
31-Dec-16 16:26 45.871183 -122.571241 194 15097ft 321kts
31-Dec-16 16:27 45.787874 -122.585251 194 14411ft 332kts
31-Dec-16 16:28 45.709103 -122.598500 198 12787ft 289kts
31-Dec-16 16:29 45.690956 -122.663445 290 9826ft 224kts
31-Dec-16 16:30 45.725856 -122.720967 312 7187ft 216kts
31-Dec-16 16:31 45.753079 -122.783039 284 6799ft 206kts
31-Dec-16 16:32 45.770281 -122.851368 284 4694ft 198kts
31-Dec-16 16:33 45.755857 -122.889961 184 4064ft 88kts
31-Dec-16 16:34 45.721692 -122.882579 144 4099ft 173kts
31-Dec-16 16:35 45.686101 -122.840833 143 3797ft 200kts
31-Dec-16 16:36 45.658170 -122.784384 116 2636ft 158kts
31-Dec-16 16:37 45.639190 -122.735206 117 1859ft 135kts
31-Dec-16 16:38 45.623439 -122.694539 116 1206ft 122kts
31-Dec-16 16:39 45.608223 -122.655320 117 598ft 114kts
31-Dec-16 16:40 45.595054 -122.621299 118 77ft 98kts
31-Dec-16 16:41 45.588085 -122.606652 224 28ft 0kts
31-Dec-16 16:42 45.587185 -122.607983 224 28ft 23kts
31-Dec-16 16:43 45.585954 -122.605782 90 28ft 0kts
31-Dec-16 16:44 45.585954 -122.605782 90 28ft 0kts
31-Dec-16 16:45 45.585954 -122.605782 90 28ft 0kts
31-Dec-16 16:46 45.585954 -122.605782 90 28ft 0kts
31-Dec-16 16:47 45.585954 -122.605782 90 28ft 0kts
31-Dec-16 16:48 45.585954 -122.605782 90 28ft 0kts
31-Dec-16 16:49 45.585954 -122.605782 90 28ft 0kts
31-Dec-16 16:50 45.585954 -122.605782 90 28ft 0kts
31-Dec-16 16:51 45.585954 -122.605782 90 28ft 0kts
31-Dec-16 16:52 45.585954 -122.605782 90 28ft 0kts
31-Dec-16 16:53 45.585954 -122.605782 90 28ft 0kts
31-Dec-16 16:54 45.585954 -122.605782 90 28ft 0kts
31-Dec-16 16:55 45.585954 -122.605782 90 28ft 0kts

Navigation Log

Ident Type
Flight plan parsing failed, navigation log unavailable